Time;durP1;ratioP1;P1;durP2;ratioP2;P2;SDS_P1;SDS_P2;PMS_P1;PMS_P2;Temp;Humidity;BMP_temperature;BMP_pressure;BME280_temperature;BME280_humidity;BME280_pressure;Samples;Min_cycle;Max_cycle;Signal;HPM_P1;HPM_P2
2020/12/17 00:00:22;;;;;;;6.05;4.50;;;13.30;71.30;;;;;;4981763;28;20199;-96
2020/12/17 00:02:48;;;;;;;9.82;5.28;;;13.20;70.80;;;;;;4999335;28;20191;-96
2020/12/17 00:05:14;;;;;;;5.30;4.80;;;13.30;71.40;;;;;;4982414;28;20188;-95
2020/12/17 00:07:40;;;;;;;6.30;5.23;;;13.20;70.70;;;;;;4980956;28;20199;-95
2020/12/17 00:10:07;;;;;;;12.88;6.40;;;13.30;71.00;;;;;;4998291;28;20494;-96
2020/12/17 00:12:38;;;;;;;6.93;5.40;;;13.20;70.60;;;;;;4983689;28;20188;-94
2020/12/17 00:15:05;;;;;;;8.30;4.95;;;13.40;70.80;;;;;;4991926;28;20188;-95
2020/12/17 00:17:32;;;;;;;6.65;5.30;;;13.30;70.40;;;;;;4988278;28;20184;-95
2020/12/17 00:19:58;;;;;;;7.10;5.75;;;13.40;70.60;;;;;;4990736;28;20199;-94
2020/12/17 00:22:24;;;;;;;7.17;4.60;;;13.40;70.20;;;;;;4972784;28;20204;-95
2020/12/17 00:24:50;;;;;;;5.68;4.95;;;13.40;70.10;;;;;;4990372;28;20419;-95
2020/12/17 00:27:16;;;;;;;6.30;4.77;;;13.20;70.00;;;;;;4976793;28;20219;-95
2020/12/17 00:29:44;;;;;;;8.53;5.03;;;13.20;70.20;;;;;;4974558;28;20211;-95
2020/12/17 00:32:13;;;;;;;5.85;4.78;;;13.20;70.40;;;;;;4982569;28;20239;-94
2020/12/17 00:34:39;;;;;;;6.35;4.70;;;13.10;70.40;;;;;;4981558;28;20180;-95
2020/12/17 00:37:04;;;;;;;7.43;4.20;;;13.00;70.40;;;;;;4968612;28;20203;-95
2020/12/17 00:39:30;;;;;;;6.20;5.17;;;13.00;70.50;;;;;;4965542;28;20549;-94
2020/12/17 00:41:56;;;;;;;5.80;4.90;;;12.90;70.70;;;;;;4963578;28;20214;-94
2020/12/17 00:44:21;;;;;;;6.50;4.87;;;12.90;70.90;;;;;;4963757;28;20184;-95
2020/12/17 00:46:49;;;;;;;5.50;4.90;;;12.90;70.70;;;;;;4969095;28;20191;-95
2020/12/17 00:49:15;;;;;;;6.32;4.82;;;12.90;70.60;;;;;;4985027;28;20219;-95
2020/12/17 00:51:42;;;;;;;6.47;4.17;;;12.90;70.80;;;;;;4967948;28;20183;-95
2020/12/17 00:54:08;;;;;;;4.32;3.92;;;13.00;71.20;;;;;;4967847;28;20176;-95
2020/12/17 00:56:34;;;;;;;4.23;3.30;;;12.90;71.10;;;;;;4968001;28;20211;-95
2020/12/17 00:58:59;;;;;;;6.47;4.00;;;12.90;71.60;;;;;;4977243;28;20486;-95
2020/12/17 01:01:25;;;;;;;6.27;4.33;;;12.70;71.70;;;;;;4967961;28;20188;-95
2020/12/17 01:03:51;;;;;;;7.07;4.27;;;12.60;72.60;;;;;;4966619;28;20215;-95
2020/12/17 01:06:16;;;;;;;3.93;3.63;;;12.70;72.90;;;;;;4968467;28;20179;-95
2020/12/17 01:08:43;;;;;;;6.50;3.70;;;12.80;73.00;;;;;;4998173;28;20212;-95
2020/12/17 01:11:09;;;;;;;6.30;4.20;;;12.70;72.90;;;;;;4982924;28;20191;-94
2020/12/17 01:13:35;;;;;;;10.00;4.17;;;12.80;73.30;;;;;;4979448;28;20211;-93
2020/12/17 01:16:00;;;;;;;6.40;4.50;;;12.90;73.50;;;;;;4966235;28;20502;-92
2020/12/17 01:18:26;;;;;;;9.73;4.30;;;12.90;73.20;;;;;;4963941;28;20184;-93
2020/12/17 01:20:51;;;;;;;10.00;4.60;;;12.80;73.40;;;;;;4962678;28;20278;-93
2020/12/17 01:23:17;;;;;;;10.03;4.93;;;12.80;73.70;;;;;;4962685;28;20183;-93
2020/12/17 01:25:43;;;;;;;9.00;5.00;;;12.80;73.70;;;;;;4963674;28;20719;-93
2020/12/17 01:28:12;;;;;;;5.20;4.40;;;12.70;74.20;;;;;;4962747;28;20592;-93
2020/12/17 01:30:38;;;;;;;9.95;4.60;;;12.70;74.30;;;;;;4977200;28;20671;-93
2020/12/17 01:33:04;;;;;;;5.88;5.20;;;12.70;74.50;;;;;;4977803;28;20180;-93
2020/12/17 01:35:29;;;;;;;13.23;5.33;;;12.70;74.80;;;;;;4945463;29;20663;-92
2020/12/17 01:37:55;;;;;;;6.47;4.73;;;12.70;75.00;;;;;;4957748;29;20194;-93
2020/12/17 01:40:20;;;;;;;5.30;4.80;;;12.70;74.80;;;;;;4953438;29;20204;-94
2020/12/17 01:42:46;;;;;;;5.00;4.30;;;12.80;75.00;;;;;;4960243;29;20235;-93
2020/12/17 01:45:12;;;;;;;5.47;4.80;;;12.80;74.60;;;;;;4952490;29;20191;-93
2020/12/17 01:47:39;;;;;;;6.10;4.40;;;12.80;74.50;;;;;;4959909;29;20176;-94
2020/12/17 01:50:08;;;;;;;6.97;5.10;;;12.70;74.90;;;;;;4951311;29;20222;-93
2020/12/17 01:52:34;;;;;;;10.13;5.35;;;12.60;75.20;;;;;;4956668;29;20270;-93
2020/12/17 01:55:01;;;;;;;6.93;4.97;;;12.60;75.50;;;;;;4956901;28;20173;-93
2020/12/17 01:57:35;;;;;;;12.82;4.85;;;12.60;75.70;;;;;;4955225;29;20420;-93
2020/12/17 02:00:12;;;;;;;6.93;5.13;;;12.60;76.00;;;;;;4935682;29;20260;-93
2020/12/17 02:02:40;;;;;;;5.30;4.65;;;12.60;76.20;;;;;;4944987;29;20176;-93
2020/12/17 02:05:06;;;;;;;9.80;5.30;;;12.60;76.40;;;;;;4929364;29;20648;-93
2020/12/17 02:07:32;;;;;;;6.28;5.00;;;12.60;76.80;;;;;;4947808;29;20345;-93
2020/12/17 02:10:00;;;;;;;6.43;5.33;;;12.60;77.00;;;;;;4966173;28;20301;-94
2020/12/17 02:12:49;;;;;;;6.43;5.63;;;12.60;77.00;;;;;;4966464;29;20216;-93
2020/12/17 02:15:22;;;;;;;7.93;4.85;;;12.70;77.20;;;;;;4963734;29;20720;-93
2020/12/17 02:17:50;;;;;;;8.30;5.32;;;12.60;77.40;;;;;;4946411;29;20232;-94
2020/12/17 02:20:16;;;;;;;5.28;4.80;;;12.80;77.80;;;;;;4962026;28;20246;-92
2020/12/17 02:22:43;;;;;;;6.87;5.73;;;12.80;77.80;;;;;;4943331;29;20188;-93
2020/12/17 02:25:11;;;;;;;9.10;6.00;;;12.60;78.10;;;;;;4959718;29;20807;-92
2020/12/17 02:27:38;;;;;;;9.30;5.93;;;12.60;78.70;;;;;;4960677;29;20196;-93
2020/12/17 02:30:06;;;;;;;8.05;6.05;;;12.60;78.80;;;;;;4945693;29;20208;-93
2020/12/17 02:32:31;;;;;;;8.82;6.47;;;12.50;79.20;;;;;;4960043;29;20239;-92
2020/12/17 02:34:57;;;;;;;9.27;5.70;;;12.80;79.70;;;;;;4947627;29;20181;-93
2020/12/17 02:37:23;;;;;;;7.40;5.83;;;12.80;79.30;;;;;;4923788;29;20610;-93
2020/12/17 02:39:49;;;;;;;10.73;6.60;;;12.70;79.00;;;;;;4925217;29;20444;-94
2020/12/17 02:42:15;;;;;;;11.13;6.60;;;12.60;79.30;;;;;;4926511;29;20195;-93
2020/12/17 02:44:40;;;;;;;12.70;7.03;;;12.60;79.50;;;;;;4927596;29;20508;-93
2020/12/17 02:47:06;;;;;;;11.53;7.00;;;12.60;79.80;;;;;;4929103;29;20185;-94
2020/12/17 02:49:32;;;;;;;12.33;7.20;;;12.70;79.80;;;;;;4929606;29;20213;-94
2020/12/17 02:51:57;;;;;;;15.23;6.27;;;12.80;79.80;;;;;;4940708;29;20445;-95
2020/12/17 02:54:23;;;;;;;9.13;6.17;;;13.00;79.90;;;;;;4930726;29;20181;-95
2020/12/17 02:56:49;;;;;;;11.27;7.90;;;13.00;79.70;;;;;;4928698;29;20189;-94
2020/12/17 02:59:14;;;;;;;11.13;6.40;;;13.00;79.30;;;;;;4929697;29;20205;-95
2020/12/17 03:01:40;;;;;;;11.33;6.67;;;13.10;79.40;;;;;;4929030;29;20276;-94
2020/12/17 03:04:06;;;;;;;10.87;7.20;;;13.10;79.50;;;;;;4929153;29;20440;-94
2020/12/17 03:06:31;;;;;;;14.63;7.30;;;13.00;79.30;;;;;;4932173;29;20221;-94
2020/12/17 03:08:57;;;;;;;10.70;7.80;;;13.10;79.20;;;;;;4926267;29;20219;-94
2020/12/17 03:11:23;;;;;;;11.20;8.00;;;13.10;79.40;;;;;;4927647;29;20181;-94
2020/12/17 03:13:49;;;;;;;7.73;6.30;;;13.10;79.40;;;;;;4928121;29;20188;-94
2020/12/17 03:16:14;;;;;;;12.20;8.37;;;13.10;79.40;;;;;;4930526;29;20193;-95
2020/12/17 03:18:40;;;;;;;11.80;8.20;;;13.10;79.30;;;;;;4929412;29;20205;-94
2020/12/17 03:21:06;;;;;;;14.60;9.67;;;13.00;79.50;;;;;;4929805;29;20201;-94
2020/12/17 03:23:31;;;;;;;16.13;10.10;;;13.10;79.80;;;;;;4928740;29;20236;-94
2020/12/17 03:25:57;;;;;;;13.10;8.20;;;13.00;80.50;;;;;;4929188;29;20268;-94
2020/12/17 03:28:23;;;;;;;14.10;8.47;;;13.00;79.60;;;;;;4932548;29;20181;-95
2020/12/17 03:30:48;;;;;;;11.80;8.37;;;12.90;79.80;;;;;;4925834;29;20654;-94
2020/12/17 03:33:14;;;;;;;10.00;8.13;;;12.80;80.00;;;;;;4926127;29;20187;-94
2020/12/17 03:35:40;;;;;;;13.87;9.40;;;12.80;80.10;;;;;;4924632;29;20192;-94
2020/12/17 03:38:05;;;;;;;11.00;7.57;;;12.90;80.00;;;;;;4927356;29;20177;-95
2020/12/17 03:40:32;;;;;;;10.50;7.37;;;12.80;80.00;;;;;;4926131;29;20260;-95
2020/12/17 03:42:58;;;;;;;12.20;8.70;;;12.80;80.10;;;;;;4927281;29;20269;-96
2020/12/17 03:45:24;;;;;;;15.27;7.80;;;12.70;80.10;;;;;;4929680;29;20218;-95
2020/12/17 03:47:50;;;;;;;11.03;8.17;;;12.80;80.40;;;;;;4941750;29;20182;-95
2020/12/17 03:50:15;;;;;;;11.03;7.90;;;12.90;80.20;;;;;;4928910;29;20477;-94
2020/12/17 03:52:41;;;;;;;14.40;8.83;;;12.80;79.80;;;;;;4925311;29;20421;-92
2020/12/17 03:55:07;;;;;;;10.50;8.57;;;12.60;80.20;;;;;;4925434;29;20189;-93
2020/12/17 03:57:33;;;;;;;16.67;8.70;;;12.50;81.00;;;;;;4941418;29;20185;-95
2020/12/17 03:59:58;;;;;;;12.33;9.03;;;12.70;80.70;;;;;;4944068;29;20281;-94
2020/12/17 04:02:24;;;;;;;11.73;8.33;;;12.70;80.50;;;;;;4933592;29;20628;-94
2020/12/17 04:04:50;;;;;;;13.87;9.03;;;12.80;80.30;;;;;;4933014;29;20181;-94
2020/12/17 04:07:16;;;;;;;12.23;8.50;;;12.70;80.20;;;;;;4931997;29;20413;-93
2020/12/17 04:09:43;;;;;;;14.63;8.53;;;12.80;79.80;;;;;;4934374;29;20535;-94
2020/12/17 04:12:08;;;;;;;10.65;8.75;;;12.70;79.80;;;;;;4932021;29;20188;-94
2020/12/17 04:14:52;;;;;;;20.03;8.03;;;12.80;80.00;;;;;;4933054;29;20189;-94
2020/12/17 04:17:18;;;;;;;10.05;8.20;;;12.80;80.50;;;;;;4933395;29;20426;-93
2020/12/17 04:19:44;;;;;;;15.40;9.67;;;12.90;79.70;;;;;;4932550;29;20209;-94
2020/12/17 04:22:16;;;;;;;9.40;7.93;;;12.90;79.70;;;;;;4933643;29;20197;-94
2020/12/17 04:24:47;;;;;;;12.52;9.07;;;13.00;79.40;;;;;;4938519;29;20169;-94
2020/12/17 04:27:14;;;;;;;11.55;9.20;;;12.80;78.50;;;;;;4940311;29;20181;-94
2020/12/17 04:29:39;;;;;;;17.27;8.30;;;12.70;78.60;;;;;;4956141;29;20304;-94
2020/12/17 04:32:05;;;;;;;13.00;9.90;;;12.70;79.20;;;;;;4932218;29;20188;-94
2020/12/17 04:34:31;;;;;;;16.00;8.50;;;12.80;79.50;;;;;;4931361;29;20257;-94
2020/12/17 04:36:58;;;;;;;10.53;7.90;;;12.80;79.20;;;;;;4931995;29;20429;-94
2020/12/17 04:39:24;;;;;;;9.50;7.57;;;12.90;79.00;;;;;;4934647;29;20477;-94
2020/12/17 04:41:52;;;;;;;11.40;8.43;;;12.80;79.20;;;;;;4933067;29;20229;-94
2020/12/17 04:44:18;;;;;;;12.90;9.88;;;12.80;79.40;;;;;;4938542;29;20185;-94
2020/12/17 04:46:52;;;;;;;11.55;8.48;;;12.80;79.20;;;;;;4924014;29;20272;-93
2020/12/17 04:49:19;;;;;;;21.73;9.00;;;12.70;79.40;;;;;;4924220;29;20627;-93
2020/12/17 04:51:47;;;;;;;15.98;10.25;;;12.80;79.60;;;;;;4924590;29;20185;-93
2020/12/17 04:54:14;;;;;;;17.65;9.70;;;12.90;79.50;;;;;;4924027;29;20188;-93
2020/12/17 04:56:42;;;;;;;12.57;8.10;;;12.90;79.20;;;;;;4924753;29;20185;-93
2020/12/17 04:59:09;;;;;;;17.10;9.60;;;12.80;79.10;;;;;;4924183;29;20212;-93
2020/12/17 05:01:42;;;;;;;11.45;9.32;;;12.80;79.10;;;;;;4924821;29;20722;-93
2020/12/17 05:04:10;;;;;;;12.35;9.32;;;12.70;79.50;;;;;;4925264;29;20272;-93
2020/12/17 05:06:38;;;;;;;15.00;9.98;;;12.70;79.40;;;;;;4938723;29;20173;-93
2020/12/17 05:09:05;;;;;;;13.40;9.65;;;12.70;79.30;;;;;;4934174;29;20220;-94
2020/12/17 05:11:31;;;;;;;12.82;8.38;;;12.70;79.10;;;;;;4924501;29;20185;-95
2020/12/17 05:13:59;;;;;;;17.02;10.35;;;12.80;79.20;;;;;;4926291;29;20193;-94
2020/12/17 05:16:24;;;;;;;12.05;9.20;;;12.80;79.20;;;;;;4925417;29;20402;-94
2020/12/17 05:18:50;;;;;;;12.40;8.30;;;12.90;79.10;;;;;;4925943;29;20181;-94
2020/12/17 05:21:16;;;;;;;10.87;9.30;;;12.80;78.50;;;;;;4925111;29;20200;-94
2020/12/17 05:23:44;;;;;;;14.27;9.50;;;12.80;78.70;;;;;;4924551;29;20189;-93
2020/12/17 05:26:10;;;;;;;11.05;9.27;;;12.60;78.90;;;;;;4923266;29;20182;-94
2020/12/17 05:28:39;;;;;;;12.03;9.50;;;12.60;79.20;;;;;;4928785;29;20204;-94
2020/12/17 05:31:05;;;;;;;13.52;9.30;;;12.70;79.20;;;;;;4932777;29;20512;-94
2020/12/17 05:33:30;;;;;;;13.07;8.97;;;12.70;79.30;;;;;;4932040;29;20185;-94
2020/12/17 05:35:57;;;;;;;15.77;11.10;;;12.70;78.90;;;;;;4946604;29;20192;-94
2020/12/17 05:38:25;;;;;;;15.32;10.50;;;12.70;78.80;;;;;;4951269;29;20632;-94
2020/12/17 05:40:53;;;;;;;13.32;10.02;;;12.70;79.00;;;;;;4960828;29;20251;-95
2020/12/17 05:43:22;;;;;;;12.85;10.93;;;12.70;78.90;;;;;;4954819;29;20644;-94
2020/12/17 05:45:48;;;;;;;13.70;9.63;;;12.70;78.70;;;;;;4950954;29;20327;-94
2020/12/17 05:48:16;;;;;;;13.20;8.70;;;12.70;78.50;;;;;;4948314;29;20236;-93
2020/12/17 05:51:00;;;;;;;15.13;8.32;;;12.70;78.30;;;;;;4948263;29;20201;-93
2020/12/17 05:53:28;;;;;;;12.40;9.48;;;12.70;78.10;;;;;;4946582;29;20177;-93
2020/12/17 05:56:05;;;;;;;10.15;8.27;;;12.70;78.40;;;;;;4951789;28;20232;-94
2020/12/17 05:58:44;;;;;;;11.13;7.93;;;12.60;78.00;;;;;;4966875;29;20172;-94
2020/12/17 06:01:16;;;;;;;8.95;7.60;;;12.50;78.10;;;;;;4967174;28;20152;-94
2020/12/17 06:03:45;;;;;;;11.20;7.97;;;12.60;78.10;;;;;;4962694;28;20161;-94
2020/12/17 06:06:11;;;;;;;9.88;7.22;;;12.60;77.80;;;;;;4966914;28;20190;-93
2020/12/17 06:08:41;;;;;;;9.75;6.95;;;12.60;77.90;;;;;;4964640;28;20210;-93
2020/12/17 06:11:13;;;;;;;6.63;5.93;;;12.60;77.70;;;;;;4945687;29;20222;-94
2020/12/17 06:13:40;;;;;;;8.15;7.32;;;12.60;77.80;;;;;;4955974;29;20176;-95
2020/12/17 06:16:08;;;;;;;7.93;6.22;;;12.50;77.60;;;;;;4952365;29;20271;-94
2020/12/17 06:18:55;;;;;;;13.88;5.65;;;12.50;77.10;;;;;;4949895;28;20180;-94
2020/12/17 06:21:26;;;;;;;7.28;6.10;;;12.60;76.90;;;;;;4948922;29;20336;-94
2020/12/17 06:23:56;;;;;;;10.38;6.57;;;12.40;76.50;;;;;;4949170;29;20174;-93
2020/12/17 06:26:23;;;;;;;11.05;6.03;;;12.40;76.80;;;;;;4949760;29;20173;-93
2020/12/17 06:28:50;;;;;;;6.70;5.43;;;12.40;77.00;;;;;;4951160;28;20231;-94
2020/12/17 06:31:26;;;;;;;15.98;7.72;;;12.20;76.60;;;;;;4950532;29;20191;-93
2020/12/17 06:34:02;;;;;;;7.80;5.40;;;12.30;77.10;;;;;;4963738;28;20171;-94
2020/12/17 06:36:42;;;;;;;10.77;5.40;;;12.20;77.40;;;;;;4966422;28;20160;-93
2020/12/17 06:39:08;;;;;;;10.68;8.02;;;12.20;77.20;;;;;;4966325;29;20267;-93
2020/12/17 06:41:34;;;;;;;7.93;5.63;;;12.20;77.40;;;;;;4965695;28;20196;-93
2020/12/17 06:44:00;;;;;;;11.23;6.00;;;12.10;77.40;;;;;;4982365;28;20244;-94
2020/12/17 06:46:36;;;;;;;6.40;5.80;;;12.00;77.70;;;;;;4966299;29;20428;-93
2020/12/17 06:49:08;;;;;;;11.80;6.10;;;11.90;77.80;;;;;;4958547;28;20207;-95
2020/12/17 06:51:36;;;;;;;9.40;6.30;;;11.80;78.20;;;;;;4966402;28;20240;-94
2020/12/17 06:54:27;;;;;;;9.23;5.68;;;11.90;78.60;;;;;;4966238;28;20232;-93
2020/12/17 06:57:13;;;;;;;6.25;5.35;;;12.10;78.10;;;;;;4955844;28;20173;-93
2020/12/17 07:00:03;;;;;;;8.65;5.93;;;12.20;77.90;;;;;;4962797;29;20264;-94
2020/12/17 07:02:49;;;;;;;12.43;5.22;;;12.20;77.70;;;;;;4960743;29;20544;-93
2020/12/17 07:05:36;;;;;;;8.10;5.20;;;12.10;77.70;;;;;;4952673;29;20695;-92
2020/12/17 07:08:02;;;;;;;7.55;6.00;;;11.90;77.40;;;;;;4940921;29;20548;-92
2020/12/17 07:10:30;;;;;;;7.45;5.50;;;12.00;77.90;;;;;;4928954;29;20217;-92
2020/12/17 07:12:56;;;;;;;9.68;5.95;;;12.00;78.10;;;;;;4929042;29;20184;-92
2020/12/17 07:15:35;;;;;;;9.60;6.27;;;12.00;78.40;;;;;;4927255;29;20185;-92
2020/12/17 07:18:22;;;;;;;6.65;5.20;;;12.00;78.50;;;;;;4925792;29;20906;-92
2020/12/17 07:21:04;;;;;;;6.15;5.15;;;12.10;78.50;;;;;;4939706;29;20201;-92
2020/12/17 07:23:35;;;;;;;6.03;5.03;;;12.20;78.50;;;;;;4923897;29;20169;-93
2020/12/17 07:26:14;;;;;;;7.95;6.57;;;12.20;77.80;;;;;;4924388;29;20173;-93
2020/12/17 07:28:40;;;;;;;7.80;5.30;;;12.20;77.80;;;;;;4924105;29;20204;-92
2020/12/17 07:31:07;;;;;;;7.07;5.57;;;12.20;77.50;;;;;;4928033;29;20209;-93
2020/12/17 07:33:39;;;;;;;9.27;6.75;;;12.20;77.50;;;;;;4935238;29;20201;-92
2020/12/17 07:36:05;;;;;;;8.77;6.38;;;12.20;77.40;;;;;;4934302;29;20200;-92
2020/12/17 07:38:31;;;;;;;8.68;6.93;;;12.10;77.40;;;;;;4942531;29;20269;-92
2020/12/17 07:40:57;;;;;;;7.22;6.45;;;12.10;77.10;;;;;;4944240;29;20200;-92
2020/12/17 07:43:37;;;;;;;13.27;8.57;;;12.10;77.50;;;;;;4944699;29;20247;-92
2020/12/17 07:46:04;;;;;;;12.32;7.22;;;12.00;77.40;;;;;;4943947;29;20172;-93
2020/12/17 07:48:54;;;;;;;9.65;6.55;;;12.10;77.70;;;;;;4945940;29;20292;-94
2020/12/17 07:51:20;;;;;;;8.75;6.20;;;12.00;77.10;;;;;;4942118;29;20168;-92
2020/12/17 07:53:48;;;;;;;10.90;7.10;;;12.00;77.40;;;;;;4957904;29;20180;-93
2020/12/17 07:56:14;;;;;;;9.30;7.05;;;11.80;77.10;;;;;;4941979;29;20212;-91
2020/12/17 07:58:42;;;;;;;8.65;7.85;;;11.90;77.70;;;;;;4942545;28;20243;-93
2020/12/17 08:01:10;;;;;;;12.13;6.78;;;11.90;77.60;;;;;;4942196;29;20215;-93
2020/12/17 08:03:52;;;;;;;10.50;7.82;;;11.80;77.70;;;;;;4942837;29;20243;-92
2020/12/17 08:06:24;;;;;;;11.80;7.60;;;11.90;77.40;;;;;;4941440;29;20379;-93
2020/12/17 08:08:55;;;;;;;18.13;8.52;;;11.80;77.60;;;;;;4941391;28;20209;-93
2020/12/17 08:11:21;;;;;;;14.60;7.15;;;12.00;78.00;;;;;;4942409;29;20180;-94
2020/12/17 08:13:47;;;;;;;11.13;6.73;;;12.00;77.50;;;;;;4946485;29;20183;-94
2020/12/17 08:16:13;;;;;;;10.20;7.07;;;12.00;77.60;;;;;;4950870;29;20412;-94
2020/12/17 08:18:38;;;;;;;9.97;6.40;;;11.90;77.10;;;;;;4956837;28;20420;-92
2020/12/17 08:21:10;;;;;;;14.13;7.40;;;11.90;77.20;;;;;;4940814;29;20951;-93
2020/12/17 08:23:41;;;;;;;11.68;7.60;;;11.80;76.90;;;;;;4941003;29;20704;-92
2020/12/17 08:26:31;;;;;;;10.15;7.65;;;11.90;77.40;;;;;;4941055;29;20172;-94
2020/12/17 08:28:57;;;;;;;12.88;7.55;;;11.90;77.40;;;;;;4975330;28;20243;-95
2020/12/17 08:31:26;;;;;;;20.60;7.60;;;12.00;77.40;;;;;;4959481;29;20188;-95
2020/12/17 08:33:54;;;;;;;12.30;6.43;;;12.00;77.30;;;;;;4949560;29;20187;-93
2020/12/17 08:36:23;;;;;;;10.63;6.25;;;12.00;77.30;;;;;;4940447;29;20195;-92
2020/12/17 08:39:18;;;;;;;10.00;6.63;;;12.00;78.00;;;;;;4939844;28;20708;-93
2020/12/17 08:41:53;;;;;;;16.08;7.15;;;12.10;77.30;;;;;;4944868;29;20173;-92
2020/12/17 08:44:35;;;;;;;14.55;6.35;;;12.10;77.10;;;;;;4941690;29;20176;-94
2020/12/17 08:47:05;;;;;;;9.93;7.05;;;12.00;76.70;;;;;;4942008;29;20169;-93
2020/12/17 08:49:32;;;;;;;16.20;6.90;;;12.00;76.80;;;;;;4940124;29;20672;-93
2020/12/17 08:51:58;;;;;;;11.23;6.97;;;11.90;77.00;;;;;;4941900;29;20181;-93
2020/12/17 08:54:36;;;;;;;11.20;6.87;;;12.00;76.90;;;;;;4946454;29;20522;-94
2020/12/17 08:57:07;;;;;;;12.07;6.88;;;12.00;77.10;;;;;;4944111;29;20416;-94
2020/12/17 08:59:33;;;;;;;7.03;6.05;;;12.10;77.10;;;;;;4945648;29;20657;-94
2020/12/17 09:01:59;;;;;;;11.47;7.00;;;12.20;77.10;;;;;;4944381;29;20263;-92
2020/12/17 09:04:26;;;;;;;9.77;7.33;;;12.20;76.50;;;;;;4940023;29;20188;-93
2020/12/17 09:06:54;;;;;;;11.30;7.30;;;12.20;76.80;;;;;;4939665;29;20999;-93
2020/12/17 09:09:27;;;;;;;8.20;5.65;;;12.20;76.50;;;;;;4940883;29;20219;-91
2020/12/17 09:11:59;;;;;;;7.78;6.22;;;12.20;76.20;;;;;;4940153;29;20177;-92
2020/12/17 09:14:29;;;;;;;6.43;5.60;;;12.20;76.20;;;;;;4939324;29;20548;-93
2020/12/17 09:17:07;;;;;;;10.88;6.70;;;12.20;75.90;;;;;;4941110;29;20188;-93
2020/12/17 09:19:34;;;;;;;13.52;6.03;;;12.20;76.00;;;;;;4939119;29;20204;-92
2020/12/17 09:22:01;;;;;;;15.55;6.47;;;12.10;76.00;;;;;;4939390;29;20196;-92
2020/12/17 09:24:32;;;;;;;9.88;5.93;;;12.10;75.70;;;;;;4951640;29;20203;-91
2020/12/17 09:27:13;;;;;;;11.90;6.85;;;12.20;76.10;;;;;;4940024;29;20267;-92
2020/12/17 09:29:39;;;;;;;10.68;6.22;;;12.20;76.00;;;;;;4940843;29;20293;-92
2020/12/17 09:32:17;;;;;;;13.27;5.45;;;12.10;76.20;;;;;;4941332;29;20268;-91
2020/12/17 09:34:43;;;;;;;10.25;5.90;;;12.10;76.10;;;;;;4931328;29;20188;-94
2020/12/17 09:37:11;;;;;;;13.43;6.13;;;12.20;76.20;;;;;;4921151;29;20193;-92
2020/12/17 09:39:44;;;;;;;8.15;5.53;;;12.20;76.00;;;;;;4921232;29;20236;-92
2020/12/17 09:42:16;;;;;;;11.30;5.88;;;12.30;76.10;;;;;;4920181;29;20664;-92
2020/12/17 09:44:42;;;;;;;11.23;5.72;;;12.40;75.70;;;;;;4939442;29;20261;-91
2020/12/17 09:47:08;;;;;;;6.95;4.90;;;12.50;75.60;;;;;;4955429;29;20208;-91
2020/12/17 09:49:39;;;;;;;8.53;5.90;;;12.50;75.10;;;;;;4950937;29;20674;-90
2020/12/17 09:52:10;;;;;;;8.95;5.57;;;12.60;74.50;;;;;;4936984;29;20416;-90
2020/12/17 09:54:42;;;;;;;11.52;5.97;;;12.50;74.00;;;;;;4952186;29;20185;-90
2020/12/17 09:57:15;;;;;;;9.77;4.97;;;12.40;74.00;;;;;;4938425;29;20188;-90
2020/12/17 09:59:44;;;;;;;5.78;4.90;;;12.40;74.10;;;;;;4938987;29;20672;-91
2020/12/17 10:02:13;;;;;;;8.32;4.85;;;12.50;74.40;;;;;;4945327;29;20181;-90
2020/12/17 10:04:41;;;;;;;6.82;4.85;;;12.30;73.80;;;;;;4938981;29;20249;-91
2020/12/17 10:07:10;;;;;;;8.00;5.43;;;12.40;73.80;;;;;;4938041;29;20215;-89
2020/12/17 10:09:36;;;;;;;9.38;5.10;;;12.40;73.80;;;;;;4938522;29;20267;-89
2020/12/17 10:12:03;;;;;;;7.28;4.70;;;12.40;73.60;;;;;;4938361;29;20181;-90
2020/12/17 10:14:29;;;;;;;10.95;4.75;;;12.50;73.60;;;;;;4940103;29;20267;-89
2020/12/17 10:16:57;;;;;;;7.38;4.78;;;12.40;73.80;;;;;;4943142;29;20177;-90
2020/12/17 10:19:23;;;;;;;8.00;4.88;;;12.50;74.20;;;;;;4941978;29;20204;-89
2020/12/17 10:21:50;;;;;;;8.13;4.65;;;12.60;73.50;;;;;;4955185;29;20204;-90
2020/12/17 10:24:15;;;;;;;8.55;5.13;;;12.40;73.40;;;;;;4942750;29;20219;-90
2020/12/17 10:26:41;;;;;;;10.73;4.57;;;12.50;73.20;;;;;;4941341;29;20180;-89
2020/12/17 10:29:08;;;;;;;7.23;5.03;;;12.60;73.30;;;;;;4941782;29;20637;-89
2020/12/17 10:31:33;;;;;;;6.47;4.32;;;12.70;73.20;;;;;;4941593;29;20184;-89
2020/12/17 10:33:59;;;;;;;6.23;4.67;;;12.60;73.20;;;;;;4942243;29;20267;-91
2020/12/17 10:36:25;;;;;;;7.67;3.73;;;12.60;73.20;;;;;;4959834;29;20232;-91
2020/12/17 10:38:51;;;;;;;4.57;3.30;;;12.60;73.20;;;;;;4958295;28;20180;-91
2020/12/17 10:41:27;;;;;;;13.30;4.65;;;12.70;73.00;;;;;;4958543;29;20202;-91
2020/12/17 10:43:53;;;;;;;7.25;4.18;;;12.70;73.40;;;;;;4960019;29;20180;-92
2020/12/17 10:46:20;;;;;;;11.20;4.63;;;12.90;72.70;;;;;;4961795;29;20191;-90
2020/12/17 10:48:46;;;;;;;7.85;4.00;;;12.80;72.80;;;;;;4944843;28;20417;-88
2020/12/17 10:51:13;;;;;;;7.57;3.92;;;12.90;72.60;;;;;;4959421;29;20176;-91
2020/12/17 10:53:40;;;;;;;5.68;4.00;;;12.90;72.40;;;;;;4958097;29;20267;-90
2020/12/17 10:56:10;;;;;;;10.40;3.58;;;12.60;71.90;;;;;;4942359;29;20184;-90
2020/12/17 10:58:36;;;;;;;13.32;3.40;;;12.80;72.40;;;;;;4952751;28;20528;-90
2020/12/17 11:01:03;;;;;;;11.55;3.40;;;13.00;72.30;;;;;;4959850;29;20271;-90
2020/12/17 11:03:28;;;;;;;9.68;3.72;;;13.00;71.70;;;;;;4942372;29;20565;-90
2020/12/17 11:05:56;;;;;;;9.57;3.27;;;13.00;71.70;;;;;;4958130;29;20176;-90
2020/12/17 11:08:23;;;;;;;16.95;3.83;;;13.00;71.40;;;;;;4957399;29;20180;-90
2020/12/17 11:10:56;;;;;;;10.93;3.60;;;12.90;70.80;;;;;;4958093;28;20770;-90
2020/12/17 11:13:22;;;;;;;6.40;3.35;;;13.00;70.90;;;;;;4958474;29;20637;-90
2020/12/17 11:15:49;;;;;;;7.10;3.70;;;12.90;70.80;;;;;;4958035;29;20284;-90
2020/12/17 11:18:15;;;;;;;7.47;3.72;;;13.00;71.30;;;;;;4955617;29;20511;-90
2020/12/17 11:20:41;;;;;;;4.65;3.45;;;13.20;71.40;;;;;;4958786;28;20200;-90
2020/12/17 11:23:07;;;;;;;8.05;3.47;;;13.30;70.80;;;;;;4957450;29;20188;-90
2020/12/17 11:25:36;;;;;;;3.53;3.23;;;13.20;70.60;;;;;;4958204;28;20185;-90
2020/12/17 11:28:04;;;;;;;7.53;3.25;;;13.20;70.00;;;;;;4957368;29;20184;-89
2020/12/17 11:30:30;;;;;;;3.88;2.20;;;13.40;70.60;;;;;;4957158;28;20216;-91
2020/12/17 11:32:55;;;;;;;7.88;2.97;;;13.50;77.30;;;;;;4957520;29;20265;-90
2020/12/17 11:35:21;;;;;;;5.90;3.00;;;13.60;77.70;;;;;;4957492;29;20192;-91
2020/12/17 11:37:50;;;;;;;11.23;3.40;;;13.80;75.90;;;;;;4941135;29;20196;-90
2020/12/17 11:40:17;;;;;;;4.60;2.75;;;13.90;75.00;;;;;;4957645;28;20204;-90
2020/12/17 11:42:43;;;;;;;5.68;3.03;;;14.10;73.40;;;;;;4958165;29;20271;-90
2020/12/17 11:45:09;;;;;;;9.75;3.05;;;14.30;72.40;;;;;;4956713;29;20626;-90
2020/12/17 11:47:35;;;;;;;9.70;2.90;;;14.40;71.10;;;;;;4956441;29;20280;-89
2020/12/17 11:50:00;;;;;;;13.33;2.60;;;14.50;70.20;;;;;;4956699;28;20476;-90
2020/12/17 11:52:26;;;;;;;7.00;3.67;;;14.50;68.90;;;;;;4957406;29;20181;-89
2020/12/17 11:54:52;;;;;;;4.53;2.47;;;14.60;68.40;;;;;;4958682;29;20173;-89
2020/12/17 11:57:17;;;;;;;8.83;3.20;;;14.50;68.80;;;;;;4956929;29;20184;-89
2020/12/17 11:59:43;;;;;;;5.40;2.27;;;14.50;68.30;;;;;;4958161;28;20204;-89
2020/12/17 12:02:09;;;;;;;3.93;2.40;;;14.60;68.70;;;;;;4958442;29;20232;-89
2020/12/17 12:04:35;;;;;;;7.18;2.85;;;14.60;67.70;;;;;;4943637;29;20192;-90
2020/12/17 12:07:00;;;;;;;2.90;2.10;;;14.70;68.00;;;;;;4959858;29;20177;-90
2020/12/17 12:09:26;;;;;;;12.73;3.03;;;14.60;67.70;;;;;;4960478;28;20239;-90
2020/12/17 12:11:55;;;;;;;5.03;2.90;;;14.50;66.40;;;;;;4960121;29;20204;-90
2020/12/17 12:14:21;;;;;;;3.85;2.53;;;14.50;66.80;;;;;;4971191;28;20192;-90
2020/12/17 12:16:47;;;;;;;3.42;2.15;;;14.40;66.80;;;;;;4942669;29;20195;-89
2020/12/17 12:19:13;;;;;;;4.17;3.17;;;14.60;66.40;;;;;;4957785;28;20573;-89
2020/12/17 12:21:39;;;;;;;3.83;2.10;;;14.60;66.20;;;;;;4958034;29;20451;-89
2020/12/17 12:24:05;;;;;;;6.50;3.17;;;14.50;66.70;;;;;;4958641;29;20180;-90
2020/12/17 12:26:30;;;;;;;8.73;2.43;;;14.50;66.50;;;;;;4943724;29;20203;-90
2020/12/17 12:28:56;;;;;;;4.33;2.40;;;14.50;66.30;;;;;;4956723;28;20593;-90
2020/12/17 12:31:22;;;;;;;2.93;2.40;;;14.60;66.10;;;;;;4958797;29;20271;-89
2020/12/17 12:33:47;;;;;;;8.30;2.50;;;14.70;66.30;;;;;;4958678;29;20431;-90
2020/12/17 12:36:13;;;;;;;7.43;2.90;;;14.70;65.90;;;;;;4925955;29;20229;-91
2020/12/17 12:38:40;;;;;;;6.20;3.30;;;14.70;66.20;;;;;;4924397;29;20229;-88
2020/12/17 12:41:07;;;;;;;9.48;2.72;;;14.60;66.20;;;;;;4926961;29;20421;-88
2020/12/17 12:43:33;;;;;;;5.53;2.95;;;14.50;65.70;;;;;;4933146;29;20181;-89
2020/12/17 12:45:58;;;;;;;8.57;2.55;;;14.50;66.40;;;;;;4930976;29;20177;-88
2020/12/17 12:48:24;;;;;;;4.00;2.63;;;14.60;66.00;;;;;;4929334;29;20208;-90